createdAt,value
2018-10-18T00:00:54.647Z,117.00
2018-10-18T00:01:54.640Z,130.20
2018-10-18T00:02:54.623Z,119.90
2018-10-18T00:03:54.615Z,141.70
2018-10-18T00:04:54.618Z,117.50
2018-10-18T00:05:54.622Z,117.30
2018-10-18T00:06:54.810Z,111.60
2018-10-18T00:07:54.612Z,104.90
2018-10-18T00:08:54.542Z,108.80
2018-10-18T00:09:54.563Z,111.90
2018-10-18T00:10:54.539Z,119.20
2018-10-18T00:11:54.535Z,116.50
2018-10-18T00:12:54.498Z,130.30
2018-10-18T00:13:54.510Z,126.60
2018-10-18T00:14:54.516Z,111.10
2018-10-18T00:15:54.465Z,106.30
2018-10-18T00:16:54.453Z,121.30
2018-10-18T00:17:54.463Z,106.30
2018-10-18T00:18:54.441Z,118.10
2018-10-18T00:19:54.493Z,107.50
2018-10-18T00:20:54.425Z,137.10
2018-10-18T00:21:54.400Z,140.40
2018-10-18T00:22:54.403Z,140.30
2018-10-18T00:23:54.418Z,141.70
2018-10-18T00:24:54.393Z,149.50
2018-10-18T00:25:54.394Z,141.70
2018-10-18T00:26:54.347Z,135.30
2018-10-18T00:27:54.336Z,161.70
2018-10-18T00:28:54.329Z,133.40
2018-10-18T00:29:54.408Z,115.20
2018-10-18T00:30:54.311Z,116.70
2018-10-18T00:31:54.328Z,118.40
2018-10-18T00:32:54.294Z,125.10
2018-10-18T00:33:54.285Z,136.20
2018-10-18T00:34:54.361Z,123.50
2018-10-18T00:35:54.294Z,156.80
2018-10-18T00:36:54.267Z,148.80
2018-10-18T00:37:54.235Z,140.40
2018-10-18T00:38:54.217Z,168.70
2018-10-18T00:39:54.262Z,168.30
2018-10-18T00:40:54.201Z,159.20
2018-10-18T00:41:54.218Z,139.80
2018-10-18T00:42:54.199Z,140.80
2018-10-18T00:43:54.163Z,149.00
2018-10-18T00:44:54.173Z,127.70
2018-10-18T00:45:54.138Z,137.70
2018-10-18T00:46:54.127Z,145.00
2018-10-18T00:47:54.168Z,173.60
2018-10-18T00:48:54.121Z,171.80
2018-10-18T00:49:54.187Z,167.30
2018-10-18T00:50:54.098Z,139.30
2018-10-18T00:51:54.081Z,153.80
2018-10-18T00:52:54.090Z,149.60
2018-10-18T00:53:54.064Z,143.70
2018-10-18T00:54:54.086Z,157.80
2018-10-18T00:55:54.093Z,141.50
2018-10-18T00:56:54.030Z,173.00
2018-10-18T00:57:54.013Z,137.10
2018-10-18T00:58:54.015Z,138.60
2018-10-18T00:59:54.049Z,153.50
2018-10-18T01:00:53.995Z,139.40
2018-10-18T01:01:53.972Z,147.90
2018-10-18T01:02:53.954Z,158.70
2018-10-18T01:03:53.959Z,141.10
2018-10-18T01:04:53.993Z,150.80
2018-10-18T01:05:53.949Z,147.30
2018-10-18T01:06:53.910Z,144.20
2018-10-18T01:07:53.920Z,158.90
2018-10-18T01:08:53.886Z,150.00
2018-10-18T01:09:53.908Z,146.40
2018-10-18T01:10:53.879Z,185.50
2018-10-18T01:11:53.921Z,160.50
2018-10-18T01:12:53.843Z,148.40
2018-10-18T01:13:53.875Z,160.90
2018-10-18T01:14:53.859Z,175.30
2018-10-18T01:15:53.837Z,145.40
2018-10-18T01:16:53.798Z,153.80
2018-10-18T01:17:53.800Z,154.10
2018-10-18T01:18:53.780Z,150.50
2018-10-18T01:19:53.817Z,157.90
2018-10-18T01:20:53.759Z,169.90
2018-10-18T01:21:53.742Z,194.70
2018-10-18T01:22:53.733Z,164.70
2018-10-18T01:23:53.731Z,189.70
2018-10-18T01:24:53.754Z,156.70
2018-10-18T01:25:53.704Z,175.90
2018-10-18T01:26:53.692Z,186.00
2018-10-18T01:27:53.695Z,197.80
2018-10-18T01:28:53.673Z,192.20
2018-10-18T01:29:53.720Z,218.50
2018-10-18T01:30:53.659Z,190.00
2018-10-18T01:31:53.689Z,188.30
2018-10-18T01:32:53.624Z,251.40
2018-10-18T01:33:53.619Z,208.50
2018-10-18T01:34:53.657Z,234.30
2018-10-18T01:35:53.614Z,189.70
2018-10-18T01:36:53.579Z,236.30
2018-10-18T01:37:53.571Z,238.90
2018-10-18T01:38:53.568Z,236.90
2018-10-18T01:39:53.570Z,242.70
2018-10-18T01:40:53.540Z,221.60
2018-10-18T01:41:53.555Z,219.70
2018-10-18T01:42:53.537Z,221.20
2018-10-18T01:43:53.548Z,254.80
2018-10-18T01:44:53.520Z,242.80
2018-10-18T01:45:53.481Z,238.70
2018-10-18T01:46:53.470Z,258.40
2018-10-18T01:47:53.493Z,263.80
2018-10-18T01:48:53.456Z,239.80
2018-10-18T01:49:53.493Z,226.00
2018-10-18T01:50:53.428Z,237.10
2018-10-18T01:51:53.422Z,243.60
2018-10-18T01:52:53.405Z,250.30
2018-10-18T01:53:53.402Z,226.10
2018-10-18T01:54:53.435Z,226.20
2018-10-18T01:55:53.388Z,246.30
2018-10-18T01:56:53.371Z,249.60
2018-10-18T01:57:53.359Z,247.60
2018-10-18T01:58:53.363Z,204.80
2018-10-18T01:59:53.339Z,231.70
2018-10-18T02:00:53.373Z,254.10
2018-10-18T02:01:53.330Z,260.30
2018-10-18T02:02:53.309Z,274.10
2018-10-18T02:03:53.303Z,242.70
2018-10-18T02:04:53.280Z,209.80
2018-10-18T02:05:53.286Z,220.60
2018-10-18T02:06:53.298Z,218.70
2018-10-18T02:07:53.299Z,246.50
2018-10-18T02:08:53.242Z,235.70
2018-10-18T02:09:53.247Z,269.50
2018-10-18T02:10:53.234Z,238.00
2018-10-18T02:11:53.249Z,213.90
2018-10-18T02:12:53.241Z,217.40
2018-10-18T02:13:53.179Z,217.70
2018-10-18T02:14:53.195Z,229.30
2018-10-18T02:15:53.179Z,247.00
2018-10-18T02:16:53.152Z,225.90
2018-10-18T02:17:53.220Z,213.70
2018-10-18T02:18:53.201Z,226.50
2018-10-18T02:19:53.117Z,222.90
2018-10-18T02:20:53.104Z,228.40
2018-10-18T02:21:53.093Z,240.40
2018-10-18T02:22:53.099Z,228.40
2018-10-18T02:23:53.108Z,223.30
2018-10-18T02:24:53.113Z,221.60
2018-10-18T02:25:53.048Z,210.60
2018-10-18T02:26:53.037Z,215.20
2018-10-18T02:27:53.031Z,212.80
2018-10-18T02:28:53.037Z,217.10
2018-10-18T02:29:53.056Z,209.50
2018-10-18T02:30:53.007Z,212.60
2018-10-18T02:31:53.005Z,201.60
2018-10-18T02:32:52.973Z,186.90
2018-10-18T02:33:52.965Z,184.80
2018-10-18T02:34:53.006Z,169.50
2018-10-18T02:35:52.965Z,201.00
2018-10-18T02:36:52.930Z,182.60
2018-10-18T02:37:52.923Z,180.00
2018-10-18T02:38:52.933Z,173.90
2018-10-18T02:39:52.910Z,172.20
2018-10-18T02:40:52.956Z,173.30
2018-10-18T02:41:52.908Z,176.90
2018-10-18T02:42:52.863Z,161.60
2018-10-18T02:43:52.861Z,152.50
2018-10-18T02:44:52.858Z,180.20
2018-10-18T02:45:52.832Z,182.10
2018-10-18T02:46:52.852Z,168.70
2018-10-18T02:47:52.820Z,172.00
2018-10-18T02:48:52.801Z,158.60
2018-10-18T02:49:52.787Z,145.30
2018-10-18T02:50:52.780Z,138.00
2018-10-18T02:51:52.825Z,181.70
2018-10-18T02:52:52.760Z,171.20
2018-10-18T02:53:52.744Z,182.80
2018-10-18T02:54:52.751Z,164.50
2018-10-18T02:55:52.749Z,160.40
2018-10-18T02:56:52.714Z,138.90
2018-10-18T02:57:52.734Z,164.30
2018-10-18T02:58:52.702Z,176.30
2018-10-18T02:59:52.681Z,173.30
2018-10-18T03:00:52.685Z,173.50
2018-10-18T03:01:52.654Z,163.40
2018-10-18T03:02:52.650Z,137.20
2018-10-18T03:03:52.661Z,153.20
2018-10-18T03:04:52.622Z,148.10
2018-10-18T03:05:52.622Z,153.60
2018-10-18T03:06:52.619Z,155.60
2018-10-18T03:07:52.590Z,143.90
2018-10-18T03:08:52.580Z,145.50
2018-10-18T03:09:52.593Z,139.10
2018-10-18T03:10:52.577Z,139.90
2018-10-18T03:11:52.557Z,139.70
2018-10-18T03:12:52.539Z,140.70
2018-10-18T03:13:52.527Z,127.70
2018-10-18T03:14:52.546Z,128.90
2018-10-18T03:15:52.549Z,138.90
2018-10-18T03:16:52.490Z,130.30
2018-10-18T03:17:52.493Z,148.20
2018-10-18T03:18:52.478Z,121.80
2018-10-18T03:19:52.461Z,132.70
2018-10-18T03:20:52.513Z,124.20
2018-10-18T03:21:52.464Z,124.70
2018-10-18T03:22:52.439Z,129.20
2018-10-18T03:23:52.468Z,123.40
2018-10-18T03:24:52.401Z,131.10
2018-10-18T03:25:52.389Z,115.90
2018-10-18T03:26:52.402Z,135.30
2018-10-18T03:27:52.378Z,118.90
2018-10-18T03:28:52.360Z,124.90
2018-10-18T03:29:52.396Z,119.20
2018-10-18T03:30:52.381Z,124.10
2018-10-18T03:31:52.347Z,124.20
2018-10-18T03:32:52.317Z,125.40
2018-10-18T03:33:52.317Z,127.50
2018-10-18T03:34:52.292Z,124.70
2018-10-18T03:35:52.283Z,118.20
2018-10-18T03:36:52.304Z,128.30
2018-10-18T03:37:52.263Z,124.90
2018-10-18T03:38:52.260Z,110.50
2018-10-18T03:39:52.242Z,126.10
2018-10-18T03:40:52.234Z,126.10
2018-10-18T03:41:52.268Z,122.70
2018-10-18T03:42:52.204Z,128.40
2018-10-18T03:43:52.220Z,126.60
2018-10-18T03:44:52.186Z,119.30
2018-10-18T03:45:52.177Z,118.60
2018-10-18T03:46:52.188Z,122.80
2018-10-18T03:47:52.190Z,122.40
2018-10-18T03:48:52.148Z,122.70
2018-10-18T03:49:52.137Z,122.00
2018-10-18T03:50:52.116Z,114.40
2018-10-18T03:51:52.106Z,119.30
2018-10-18T03:52:52.133Z,122.50
2018-10-18T03:53:52.139Z,112.80
2018-10-18T03:54:52.076Z,123.80
2018-10-18T03:55:52.060Z,112.80
2018-10-18T03:56:52.145Z,119.00
2018-10-18T03:57:52.039Z,125.40
2018-10-18T03:58:52.034Z,121.70
2018-10-18T03:59:52.071Z,132.90
2018-10-18T04:00:52.005Z,129.70
2018-10-18T04:01:51.994Z,111.40
2018-10-18T04:02:52.014Z,112.40
2018-10-18T04:03:51.985Z,117.20
2018-10-18T04:04:51.972Z,108.30
2018-10-18T04:05:51.957Z,114.10
2018-10-18T04:06:51.963Z,118.90
2018-10-18T04:07:51.951Z,117.50
2018-10-18T04:08:51.941Z,118.50
2018-10-18T04:09:51.924Z,114.30
2018-10-18T04:10:51.896Z,109.20
2018-10-18T04:11:51.887Z,109.90
2018-10-18T04:12:51.971Z,108.90
2018-10-18T04:13:51.900Z,117.70
2018-10-18T04:14:51.861Z,107.10
2018-10-18T04:15:51.848Z,108.80
2018-10-18T04:16:51.871Z,100.50
2018-10-18T04:17:51.839Z,101.60
2018-10-18T04:18:51.848Z,117.80
2018-10-18T04:19:51.814Z,113.50
2018-10-18T04:20:51.800Z,102.80
2018-10-18T04:21:51.778Z,110.30
2018-10-18T04:22:51.782Z,100.90
2018-10-18T04:23:51.780Z,112.40
2018-10-18T04:24:51.784Z,104.00
2018-10-18T04:25:51.734Z,104.00
2018-10-18T04:26:51.748Z,104.10
2018-10-18T04:27:51.720Z,106.40
2018-10-18T04:28:51.728Z,112.80
2018-10-18T04:29:51.750Z,109.90
2018-10-18T04:30:51.703Z,105.50
2018-10-18T04:31:51.698Z,105.00
2018-10-18T04:32:51.657Z,110.10
2018-10-18T04:33:51.648Z,110.70
2018-10-18T04:34:51.635Z,106.10
2018-10-18T04:35:51.653Z,101.90
2018-10-18T04:36:51.624Z,109.10
2018-10-18T04:37:51.616Z,115.60
2018-10-18T04:38:51.599Z,108.40
2018-10-18T04:39:51.579Z,104.00
2018-10-18T04:40:51.609Z,110.10
2018-10-18T04:41:51.613Z,101.00
2018-10-18T04:42:51.558Z,109.70
2018-10-18T04:43:51.556Z,116.50
2018-10-18T04:44:51.526Z,116.60
2018-10-18T04:45:51.515Z,121.20
2018-10-18T04:46:51.539Z,115.00
2018-10-18T04:47:51.585Z,121.90
2018-10-18T04:48:51.575Z,124.00
2018-10-18T04:49:51.485Z,122.20
2018-10-18T04:50:51.460Z,129.90
2018-10-18T04:51:51.461Z,121.70
2018-10-18T04:52:51.475Z,129.50
2018-10-18T04:53:51.426Z,120.20
2018-10-18T04:54:51.424Z,125.50
2018-10-18T04:55:51.418Z,124.80
2018-10-18T04:56:51.471Z,121.30
2018-10-18T04:57:51.433Z,129.60
2018-10-18T04:58:51.372Z,121.10
2018-10-18T04:59:51.386Z,121.90
2018-10-18T05:00:51.393Z,130.20
2018-10-18T05:01:51.341Z,128.80
2018-10-18T05:02:51.434Z,123.10
2018-10-18T05:03:51.323Z,122.70
2018-10-18T05:04:51.429Z,130.60
2018-10-18T05:05:51.316Z,130.10
2018-10-18T05:06:51.325Z,126.70
2018-10-18T05:07:51.289Z,127.20
2018-10-18T05:08:51.298Z,126.50
2018-10-18T05:09:51.257Z,127.30
2018-10-18T05:10:51.251Z,130.00
2018-10-18T05:11:51.230Z,126.40
2018-10-18T05:12:51.238Z,127.10
2018-10-18T05:13:51.252Z,120.10
2018-10-18T05:14:51.207Z,122.40
2018-10-18T05:15:51.211Z,120.00
2018-10-18T05:16:51.180Z,124.50
2018-10-18T05:17:51.164Z,132.40
2018-10-18T05:18:51.163Z,124.80
2018-10-18T05:19:51.197Z,123.60
2018-10-18T05:20:51.144Z,124.40
2018-10-18T05:21:51.133Z,132.30
2018-10-18T05:22:51.137Z,123.50
2018-10-18T05:23:51.114Z,123.50
2018-10-18T05:24:51.184Z,125.40
2018-10-18T05:25:51.119Z,128.70
2018-10-18T05:26:51.082Z,126.90
2018-10-18T05:27:51.068Z,122.20
2018-10-18T05:28:51.067Z,123.90
2018-10-18T05:29:51.123Z,124.00
2018-10-18T05:30:51.127Z,122.90
2018-10-18T05:31:51.124Z,119.60
2018-10-18T05:32:51.005Z,124.80
2018-10-18T05:33:51.050Z,120.70
2018-10-18T05:34:51.000Z,126.60
2018-10-18T05:35:51.041Z,123.40
2018-10-18T05:36:51.087Z,122.50
2018-10-18T05:37:53.091Z,118.80
2018-10-18T05:38:51.318Z,124.20
2018-10-18T05:39:50.925Z,122.30
2018-10-18T05:40:50.981Z,122.70
2018-10-18T05:41:50.947Z,125.20
2018-10-18T05:42:50.892Z,129.60
2018-10-18T05:43:50.926Z,117.50
2018-10-18T05:44:50.876Z,123.50
2018-10-18T05:45:50.876Z,122.40
2018-10-18T05:46:50.907Z,124.40
2018-10-18T05:47:50.863Z,121.80
2018-10-18T05:48:57.297Z,124.50
2018-10-18T05:49:50.822Z,121.80
2018-10-18T05:50:50.806Z,117.00
2018-10-18T05:51:50.804Z,128.30
2018-10-18T05:52:50.850Z,122.60
2018-10-18T05:53:50.925Z,113.40
2018-10-18T05:54:50.789Z,113.40
2018-10-18T05:55:50.762Z,114.70
2018-10-18T05:56:50.744Z,120.20
2018-10-18T05:57:50.786Z,125.90
2018-10-18T05:58:50.726Z,127.80
2018-10-18T05:59:50.734Z,127.80
2018-10-18T06:00:50.701Z,121.40
2018-10-18T06:01:50.691Z,124.00
2018-10-18T06:02:50.708Z,120.10
2018-10-18T06:03:50.694Z,130.10
2018-10-18T06:04:50.657Z,123.40
2018-10-18T06:05:50.657Z,121.20
2018-10-18T06:06:50.636Z,123.50
2018-10-18T06:07:50.657Z,128.90
2018-10-18T06:08:50.615Z,123.20
2018-10-18T06:09:50.706Z,123.40
2018-10-18T06:10:50.592Z,122.10
2018-10-18T06:11:50.584Z,126.20
2018-10-18T06:12:50.758Z,122.60
2018-10-18T06:13:50.575Z,115.90
2018-10-18T06:14:50.579Z,131.30
2018-10-18T06:15:50.566Z,119.60
2018-10-18T06:16:50.537Z,110.90
2018-10-18T06:17:50.513Z,124.90
2018-10-18T06:18:50.532Z,119.90
2018-10-18T06:19:50.498Z,118.90
2018-10-18T06:20:50.513Z,123.80
2018-10-18T06:21:50.490Z,123.00
2018-10-18T06:22:50.603Z,123.10
2018-10-18T06:23:50.496Z,116.70
2018-10-18T06:24:50.439Z,118.20
2018-10-18T06:25:50.427Z,115.00
2018-10-18T06:26:50.453Z,111.50
2018-10-18T06:27:50.404Z,112.10
2018-10-18T06:28:50.407Z,122.10
2018-10-18T06:29:50.400Z,120.80
2018-10-18T06:30:50.390Z,119.60
2018-10-18T06:31:50.372Z,112.00
2018-10-18T06:32:50.418Z,124.10
2018-10-18T06:33:50.356Z,113.10
2018-10-18T06:34:50.329Z,111.70
2018-10-18T06:35:50.362Z,103.20
2018-10-18T06:36:50.308Z,117.90
2018-10-18T06:37:50.322Z,115.40
2018-10-18T06:38:50.315Z,119.30
2018-10-18T06:39:50.280Z,112.50
2018-10-18T06:40:50.271Z,117.20
2018-10-18T06:41:50.255Z,105.20
2018-10-18T06:42:50.297Z,106.40
2018-10-18T06:43:50.248Z,105.70
2018-10-18T06:44:50.226Z,115.40
2018-10-18T06:45:50.240Z,108.10
2018-10-18T06:46:50.265Z,113.40
2018-10-18T06:47:50.262Z,113.70
2018-10-18T06:48:50.240Z,109.80
2018-10-18T06:49:50.219Z,108.60
2018-10-18T06:50:50.174Z,106.50
2018-10-18T06:51:50.147Z,113.00
2018-10-18T06:52:50.138Z,111.50
2018-10-18T06:53:50.128Z,108.90
2018-10-18T06:54:50.144Z,110.30
2018-10-18T06:55:50.129Z,108.40
2018-10-18T06:56:50.097Z,108.00
2018-10-18T06:57:50.092Z,109.70
2018-10-18T06:58:50.125Z,110.60
2018-10-18T06:59:50.131Z,104.70
2018-10-18T07:00:50.065Z,109.00
2018-10-18T07:01:50.043Z,117.90
2018-10-18T07:02:50.035Z,110.10
2018-10-18T07:03:50.032Z,110.30
2018-10-18T07:04:50.067Z,108.40
2018-10-18T07:05:49.998Z,111.40
2018-10-18T07:06:50.009Z,105.10
2018-10-18T07:07:49.982Z,105.80
2018-10-18T07:08:50.015Z,105.20
2018-10-18T07:09:49.965Z,105.40
2018-10-18T07:10:50.077Z,110.70
2018-10-18T07:11:49.932Z,106.40
2018-10-18T07:12:49.934Z,101.30
2018-10-18T07:13:49.906Z,110.80
2018-10-18T07:14:49.896Z,107.20
2018-10-18T07:15:49.928Z,110.70
2018-10-18T07:16:49.916Z,112.00
2018-10-18T07:17:49.942Z,100.70
2018-10-18T07:18:49.854Z,104.30
2018-10-18T07:19:49.858Z,103.40
2018-10-18T07:20:49.844Z,101.40
2018-10-18T07:21:49.851Z,101.20
2018-10-18T07:22:49.807Z,104.30
2018-10-18T07:23:49.796Z,99.60
2018-10-18T07:24:49.785Z,98.00
2018-10-18T07:25:49.792Z,103.30
2018-10-18T07:26:49.805Z,103.30
2018-10-18T07:27:49.754Z,103.30
2018-10-18T07:28:49.743Z,109.60
2018-10-18T07:29:49.751Z,101.40
2018-10-18T07:30:49.719Z,99.20
2018-10-18T07:31:49.735Z,98.60
2018-10-18T07:32:49.703Z,99.00
2018-10-18T07:33:49.724Z,96.60
2018-10-18T07:34:49.739Z,93.00
2018-10-18T07:35:49.664Z,93.30
2018-10-18T07:36:49.696Z,95.20
2018-10-18T07:37:49.659Z,93.80
2018-10-18T07:38:49.654Z,93.10
2018-10-18T07:39:49.624Z,99.70
2018-10-18T07:40:49.609Z,91.30
2018-10-18T07:41:49.602Z,86.90
2018-10-18T07:42:49.638Z,85.50
2018-10-18T07:43:49.576Z,85.70
2018-10-18T07:44:49.574Z,85.80
2018-10-18T07:45:49.560Z,85.60
2018-10-18T07:46:49.592Z,86.40
2018-10-18T07:47:49.552Z,87.00
2018-10-18T07:48:49.588Z,87.10
2018-10-18T07:49:49.513Z,81.70
2018-10-18T07:50:49.501Z,77.80
2018-10-18T07:51:49.532Z,85.10
2018-10-18T07:52:49.529Z,80.30
2018-10-18T07:53:49.498Z,76.90
2018-10-18T07:54:49.473Z,81.90
2018-10-18T07:55:49.450Z,78.90
2018-10-18T07:56:49.435Z,81.60
2018-10-18T07:57:49.445Z,78.80
2018-10-18T07:58:49.411Z,82.00
2018-10-18T07:59:49.486Z,77.30
2018-10-18T08:00:49.560Z,77.70
2018-10-18T08:01:49.378Z,82.90
2018-10-18T08:02:49.375Z,82.00
2018-10-18T08:03:49.368Z,86.70
2018-10-18T08:04:49.387Z,78.10
2018-10-18T08:05:49.363Z,81.70
2018-10-18T08:06:49.326Z,81.20
2018-10-18T08:07:49.327Z,81.20
2018-10-18T08:08:49.324Z,78.00
2018-10-18T08:09:49.299Z,75.90
2018-10-18T08:10:49.341Z,72.10
2018-10-18T08:11:49.276Z,74.80
2018-10-18T08:12:49.279Z,74.20
2018-10-18T08:13:49.251Z,73.30
2018-10-18T08:14:49.261Z,71.30
2018-10-18T08:15:49.362Z,66.70
2018-10-18T08:16:49.308Z,70.90
2018-10-18T08:17:49.204Z,70.30
2018-10-18T08:18:49.193Z,73.80
2018-10-18T08:19:49.184Z,69.00
2018-10-18T08:20:49.217Z,66.30
2018-10-18T08:21:49.192Z,74.60
2018-10-18T08:22:49.199Z,70.20
2018-10-18T08:23:49.142Z,70.20
2018-10-18T08:24:49.132Z,67.40
2018-10-18T08:25:49.128Z,72.40
2018-10-18T08:26:49.146Z,69.80
2018-10-18T08:27:49.099Z,68.40
2018-10-18T08:28:49.122Z,67.80
2018-10-18T08:29:49.116Z,68.10
2018-10-18T08:30:49.066Z,69.20
2018-10-18T08:31:49.103Z,75.70
2018-10-18T08:32:49.090Z,68.40
2018-10-18T08:33:49.053Z,61.60
2018-10-18T08:34:49.027Z,65.40
2018-10-18T08:35:49.085Z,61.20
2018-10-18T08:36:49.012Z,65.80
2018-10-18T08:37:49.072Z,65.20
2018-10-18T08:38:49.040Z,67.70
2018-10-18T08:39:48.971Z,65.70
2018-10-18T08:40:48.961Z,67.70
2018-10-18T08:41:48.952Z,61.70
2018-10-18T08:42:48.938Z,63.30
2018-10-18T08:43:49.017Z,61.60
2018-10-18T08:44:48.960Z,63.10
2018-10-18T08:45:48.905Z,64.50
2018-10-18T08:46:48.897Z,60.60
2018-10-18T08:47:48.881Z,57.50
2018-10-18T08:48:48.910Z,60.40
2018-10-18T08:49:48.992Z,64.30
2018-10-18T08:50:48.865Z,65.80
2018-10-18T08:51:48.909Z,65.30
2018-10-18T08:52:48.825Z,73.60
2018-10-18T08:53:48.817Z,69.20
2018-10-18T08:54:48.856Z,64.20
2018-10-18T08:55:48.794Z,68.10
2018-10-18T08:56:48.786Z,63.80
2018-10-18T08:57:48.776Z,67.70
2018-10-18T08:58:48.838Z,69.20
2018-10-18T08:59:48.787Z,60.10
2018-10-18T09:00:48.811Z,70.90
2018-10-18T09:01:48.768Z,68.70
2018-10-18T09:02:48.718Z,68.00
2018-10-18T09:03:48.711Z,64.50
2018-10-18T09:04:48.696Z,70.40
2018-10-18T09:05:48.716Z,66.70
2018-10-18T09:06:48.691Z,62.50
2018-10-18T09:07:48.681Z,66.40
2018-10-18T09:08:48.656Z,69.60
2018-10-18T09:09:48.645Z,69.20
2018-10-18T09:10:48.718Z,70.30
2018-10-18T09:11:48.621Z,71.50
2018-10-18T09:12:48.613Z,61.50
2018-10-18T09:13:48.617Z,66.80
2018-10-18T09:14:48.607Z,66.50
2018-10-18T09:15:48.634Z,69.30
2018-10-18T09:16:48.738Z,61.40
2018-10-18T09:17:48.560Z,67.70
2018-10-18T09:18:48.545Z,65.80
2018-10-18T09:19:48.555Z,68.20
2018-10-18T09:20:48.556Z,66.50
2018-10-18T09:21:48.634Z,65.40
2018-10-18T09:22:48.510Z,66.00
2018-10-18T09:23:48.565Z,72.60
2018-10-18T09:24:48.505Z,70.20
2018-10-18T09:25:48.504Z,69.10
2018-10-18T09:26:48.526Z,66.40
2018-10-18T09:27:48.472Z,70.90
2018-10-18T09:28:48.443Z,65.20
2018-10-18T09:29:48.425Z,70.70
2018-10-18T09:30:48.418Z,66.70
2018-10-18T09:31:48.438Z,63.70
2018-10-18T09:32:48.397Z,69.50
2018-10-18T09:33:48.397Z,70.80
2018-10-18T09:34:48.436Z,64.90
2018-10-18T09:35:48.363Z,66.00
2018-10-18T09:36:48.349Z,71.50
2018-10-18T09:37:48.392Z,61.70
2018-10-18T09:38:48.351Z,66.00
2018-10-18T09:39:48.337Z,68.10
2018-10-18T09:40:48.310Z,70.60
2018-10-18T09:41:48.305Z,63.70
2018-10-18T09:42:48.291Z,63.50
2018-10-18T09:43:48.344Z,62.70
2018-10-18T09:44:48.274Z,69.20
2018-10-18T09:45:48.264Z,64.20
2018-10-18T09:46:48.253Z,68.50
2018-10-18T09:47:48.256Z,61.80
2018-10-18T09:48:48.613Z,62.90
2018-10-18T09:49:48.342Z,66.30
2018-10-18T09:50:48.194Z,63.10
2018-10-18T09:51:48.187Z,63.10
2018-10-18T09:52:48.234Z,70.60
2018-10-18T09:53:48.200Z,60.90
2018-10-18T09:54:48.169Z,63.80
2018-10-18T09:55:48.202Z,61.30
2018-10-18T09:56:48.152Z,61.20
2018-10-18T09:57:48.117Z,60.60
2018-10-18T09:58:48.108Z,60.60
2018-10-18T09:59:48.128Z,59.80
2018-10-18T10:00:48.092Z,61.10
2018-10-18T10:01:48.084Z,61.10
2018-10-18T10:02:48.074Z,60.00
2018-10-18T10:03:48.053Z,57.80
2018-10-18T10:04:48.069Z,56.90
2018-10-18T10:05:48.038Z,66.60
2018-10-18T10:06:48.030Z,59.10
2018-10-18T10:07:48.137Z,58.00
2018-10-18T10:08:48.004Z,58.80
2018-10-18T10:09:47.986Z,61.90
2018-10-18T10:10:48.020Z,60.40
2018-10-18T10:11:48.045Z,63.10
2018-10-18T10:12:47.967Z,56.00
2018-10-18T10:13:48.091Z,57.20
2018-10-18T10:14:47.936Z,57.20
2018-10-18T10:15:47.980Z,60.30
2018-10-18T10:16:47.951Z,56.50
2018-10-18T10:17:47.978Z,57.50
2018-10-18T10:18:47.907Z,61.30
2018-10-18T10:19:47.884Z,57.30
2018-10-18T10:20:47.875Z,56.40
2018-10-18T10:21:47.892Z,57.70
2018-10-18T10:22:47.845Z,56.50
2018-10-18T10:23:47.843Z,56.60
2018-10-18T10:24:47.899Z,54.70
2018-10-18T10:25:47.814Z,54.70
2018-10-18T10:26:47.837Z,55.40
2018-10-18T10:27:47.809Z,59.00
2018-10-18T10:28:47.779Z,56.60
2018-10-18T10:29:47.817Z,55.80
2018-10-18T10:30:47.762Z,58.30
2018-10-18T10:31:47.745Z,54.10
2018-10-18T10:32:47.785Z,56.50
2018-10-18T10:33:47.785Z,59.10
2018-10-18T10:34:47.715Z,53.70
2018-10-18T10:35:47.892Z,52.60
2018-10-18T10:36:47.690Z,56.00
2018-10-18T10:37:47.727Z,58.90
2018-10-18T10:38:47.674Z,50.40
2018-10-18T10:39:47.752Z,58.60
2018-10-18T10:40:47.662Z,56.90
2018-10-18T10:41:47.637Z,58.30
2018-10-18T10:42:47.665Z,54.10
2018-10-18T10:43:47.640Z,57.80
2018-10-18T10:44:47.640Z,58.50
2018-10-18T10:45:47.619Z,58.60
2018-10-18T10:46:47.582Z,54.80
2018-10-18T10:47:47.613Z,57.00
2018-10-18T10:48:47.575Z,55.60
2018-10-18T10:49:47.555Z,56.80
2018-10-18T10:50:47.555Z,58.70
2018-10-18T10:51:47.529Z,56.70
2018-10-18T10:52:47.529Z,57.00
2018-10-18T10:53:47.570Z,54.90
2018-10-18T10:54:47.493Z,54.50
2018-10-18T10:55:47.484Z,57.90
2018-10-18T10:56:47.486Z,51.90
2018-10-18T10:57:47.464Z,52.00
2018-10-18T10:58:47.528Z,53.30
2018-10-18T10:59:47.440Z,58.60
2018-10-18T11:00:47.448Z,56.30
2018-10-18T11:01:47.426Z,56.90
2018-10-18T11:02:47.446Z,56.50
2018-10-18T11:03:47.396Z,60.40
2018-10-18T11:04:47.448Z,59.20
2018-10-18T11:05:47.388Z,58.50
2018-10-18T11:06:47.383Z,52.90
2018-10-18T11:07:47.360Z,53.70
2018-10-18T11:08:47.364Z,55.60
2018-10-18T11:09:47.461Z,57.40
2018-10-18T11:10:47.342Z,56.10
2018-10-18T11:11:47.352Z,54.80
2018-10-18T11:12:47.297Z,60.60
2018-10-18T11:13:47.288Z,54.70
2018-10-18T11:14:47.318Z,58.60
2018-10-18T11:15:47.292Z,54.40
2018-10-18T11:16:47.253Z,48.40
2018-10-18T11:17:47.244Z,51.50
2018-10-18T11:18:47.236Z,48.00
2018-10-18T11:19:47.286Z,54.90
2018-10-18T11:20:47.213Z,49.10
2018-10-18T11:21:47.307Z,50.60
2018-10-18T11:22:47.191Z,52.60
2018-10-18T11:23:47.182Z,50.20
2018-10-18T11:24:47.288Z,51.60
2018-10-18T11:25:47.159Z,48.90
2018-10-18T11:26:47.199Z,50.40
2018-10-18T11:27:47.160Z,47.20
2018-10-18T11:28:47.124Z,45.40
2018-10-18T11:29:47.111Z,46.30
2018-10-18T11:30:47.115Z,45.00
2018-10-18T11:31:47.191Z,42.20
2018-10-18T11:32:47.111Z,45.40
2018-10-18T11:33:47.092Z,40.20
2018-10-18T11:34:47.078Z,43.70
2018-10-18T11:35:47.055Z,43.00
2018-10-18T11:36:47.045Z,42.60
2018-10-18T11:37:47.074Z,40.20
2018-10-18T11:38:47.014Z,40.20
2018-10-18T11:39:47.026Z,41.10
2018-10-18T11:40:46.998Z,39.20
2018-10-18T11:41:47.091Z,40.30
2018-10-18T11:42:47.044Z,38.40
2018-10-18T11:43:47.101Z,37.00
2018-10-18T11:44:46.951Z,36.20
2018-10-18T11:45:46.949Z,36.90
2018-10-18T11:46:46.926Z,34.20
2018-10-18T11:47:46.919Z,37.60
2018-10-18T11:48:46.953Z,38.70
2018-10-18T11:49:46.893Z,32.10
2018-10-18T11:50:46.896Z,37.10
2018-10-18T11:51:46.986Z,36.40
2018-10-18T11:52:46.879Z,33.50
2018-10-18T11:53:46.853Z,32.20
2018-10-18T11:54:46.886Z,32.50
2018-10-18T11:55:46.839Z,33.20
2018-10-18T11:56:47.065Z,31.90
2018-10-18T11:57:46.812Z,31.50
2018-10-18T11:58:46.845Z,29.70
2018-10-18T11:59:46.823Z,33.20
2018-10-18T12:00:46.901Z,32.20
2018-10-18T12:01:46.767Z,37.70
2018-10-18T12:02:46.835Z,30.70
2018-10-18T12:03:46.930Z,31.80
2018-10-18T12:04:46.731Z,33.10
2018-10-18T12:05:46.756Z,30.40
2018-10-18T12:06:46.710Z,32.60
2018-10-18T12:07:46.762Z,31.00
2018-10-18T12:08:46.689Z,28.60
2018-10-18T12:09:46.675Z,29.10
2018-10-18T12:10:46.699Z,28.70
2018-10-18T12:11:46.829Z,30.30
2018-10-18T12:12:46.780Z,28.70
2018-10-18T12:13:46.633Z,27.70
2018-10-18T12:14:46.625Z,28.70
2018-10-18T12:15:46.647Z,27.50
2018-10-18T12:16:46.694Z,31.00
2018-10-18T12:17:46.593Z,27.40
2018-10-18T12:18:46.577Z,28.50
2018-10-18T12:19:46.604Z,27.20
2018-10-18T12:20:46.590Z,26.30
2018-10-18T12:21:46.543Z,27.50
2018-10-18T12:22:46.558Z,28.50
2018-10-18T12:23:46.587Z,27.40
2018-10-18T12:24:46.512Z,25.00
2018-10-18T12:25:46.500Z,27.30
2018-10-18T12:26:46.532Z,27.30
2018-10-18T12:27:46.674Z,29.40
2018-10-18T12:28:46.472Z,29.90
2018-10-18T12:29:46.465Z,29.30
2018-10-18T12:30:46.459Z,27.40
2018-10-18T12:31:46.439Z,26.30
2018-10-18T12:32:46.485Z,28.80
2018-10-18T12:33:46.442Z,29.70
2018-10-18T12:34:46.404Z,28.30
2018-10-18T12:35:46.394Z,25.80
2018-10-18T12:36:46.417Z,26.80
2018-10-18T12:37:46.406Z,26.50
2018-10-18T12:38:46.382Z,30.10